Llano, TX

3:25 PM CST on December 03, 2016 (GMT -0600)
Llano | | Change Station

Elev 1102 ft 30.79 °N, 98.66 °W | Updated 10 minutes ago

Overcast
Overcast
52 °F
Feels Like 52 °F
N
0
Wind Variable Wind from North

Today
High -- | Low -- °F
--% Chance of Precip.
Yesterday
High -- | Low -- °F
Precip. -- in
Pressure 29.94 in
Visibility 6.0 miles
Clouds Overcast 1300 ft
Dew Point 52 °F
Humidity 100%
Rainfall 0.42 in
Snow Depth Not available.
7:16 AM 5:32 PM
Waxing Crescent, 17% visible
METAR KAQO 032115Z AUTO 00000KT 6SM BR OVC013 11/11 A2994 RMK AO2
Pressure 29.94 in
Visibility 6.0 miles
Clouds Overcast 1300 ft
Dew Point 52 °F
Humidity 100%
Rainfall 0.42 in
Snow Depth Not available.
7:16 AM 5:32 PM
Waxing Crescent, 17% visible
METAR KAQO 032115Z AUTO 00000KT 6SM BR OVC013 11/11 A2994 RMK AO2

10-Day Weather Forecast

Almanac

Astronomy

Dec. 03, 2016 Rise Set
Actual Time
Civil Twilight
Nautical Twilight
Astronomical Twilight
Moon
Length of Visible Light
Length of Day
Tomorrow will be .
, % of the Moon is Illuminated

Today's Extremes

State Highs State Lows

Community

WunderPhotos

Upload Photos

1,955,498 photos uploaded!

WunderBlog® & News

Nearby

Air Quality

  Air Quality AQ Index Pollutant
Not available.

Snow Depth

Station Depth Elevation

Earthquake Activity

City Distance Mag. Time & Date
Minimum magnitude displayed is 2.5.

Coastal Water Temperatures

Place Temperature

Stations

Nearby Weather Stations

Station Location Temp. Windchill Dew Point Humidity Wind Precip. Elev Updated Type
                   

Watches & Warnings

There are currently no watches in effect.